sensor_id;sensor_type;location;lat;lon;timestamp;pressure;altitude;pressure_sealevel;temperature;humidity
19624;BME280;9959;49.798;9.928;2023-08-31T00:02:02;98955.19;;;13.47;100.00
19624;BME280;9959;49.798;9.928;2023-08-31T00:04:30;98962.38;;;13.42;100.00
19624;BME280;9959;49.798;9.928;2023-08-31T00:06:57;98947.66;;;13.33;100.00
19624;BME280;9959;49.798;9.928;2023-08-31T00:09:24;98950.28;;;13.28;100.00
19624;BME280;9959;49.798;9.928;2023-08-31T00:11:51;98954.03;;;13.27;100.00
19624;BME280;9959;49.798;9.928;2023-08-31T00:14:18;98946.19;;;13.25;100.00
19624;BME280;9959;49.798;9.928;2023-08-31T00:16:45;98942.22;;;13.16;100.00
19624;BME280;9959;49.798;9.928;2023-08-31T00:19:14;98950.75;;;13.08;100.00
19624;BME280;9959;49.798;9.928;2023-08-31T00:21:42;98939.28;;;13.17;100.00
19624;BME280;9959;49.798;9.928;2023-08-31T00:24:09;98938.09;;;13.13;100.00
19624;BME280;9959;49.798;9.928;2023-08-31T00:26:39;98943.50;;;13.13;100.00
19624;BME280;9959;49.798;9.928;2023-08-31T00:29:09;98941.72;;;13.02;100.00
19624;BME280;9959;49.798;9.928;2023-08-31T00:31:37;98951.38;;;12.98;100.00
19624;BME280;9959;49.798;9.928;2023-08-31T00:34:04;98949.50;;;12.99;100.00
19624;BME280;9959;49.798;9.928;2023-08-31T00:36:33;98973.50;;;12.95;100.00
19624;BME280;9959;49.798;9.928;2023-08-31T00:39:04;98970.41;;;13.03;100.00
19624;BME280;9959;49.798;9.928;2023-08-31T00:41:37;98975.81;;;13.03;100.00
19624;BME280;9959;49.798;9.928;2023-08-31T00:44:04;98968.97;;;13.29;100.00
19624;BME280;9959;49.798;9.928;2023-08-31T00:46:32;98973.19;;;13.08;100.00
19624;BME280;9959;49.798;9.928;2023-08-31T00:48:59;98973.47;;;13.24;100.00
19624;BME280;9959;49.798;9.928;2023-08-31T00:51:26;98972.72;;;13.11;100.00
19624;BME280;9959;49.798;9.928;2023-08-31T00:53:53;98979.56;;;13.02;100.00
19624;BME280;9959;49.798;9.928;2023-08-31T00:56:21;98978.81;;;12.90;100.00
19624;BME280;9959;49.798;9.928;2023-08-31T00:58:48;98981.34;;;12.97;100.00
19624;BME280;9959;49.798;9.928;2023-08-31T01:01:36;98985.84;;;12.91;100.00
19624;BME280;9959;49.798;9.928;2023-08-31T01:04:20;98982.00;;;12.87;100.00
19624;BME280;9959;49.798;9.928;2023-08-31T01:12:10;98983.38;;;12.89;100.00
19624;BME280;9959;49.798;9.928;2023-08-31T01:14:44;98983.00;;;12.98;100.00
19624;BME280;9959;49.798;9.928;2023-08-31T01:17:15;98980.44;;;12.91;100.00
19624;BME280;9959;49.798;9.928;2023-08-31T01:22:38;98997.56;;;12.80;100.00
19624;BME280;9959;49.798;9.928;2023-08-31T01:25:09;98990.31;;;12.69;100.00
19624;BME280;9959;49.798;9.928;2023-08-31T01:27:37;98984.69;;;12.59;100.00
19624;BME280;9959;49.798;9.928;2023-08-31T01:30:05;98990.19;;;12.64;100.00
19624;BME280;9959;49.798;9.928;2023-08-31T01:32:34;98994.88;;;12.68;100.00
19624;BME280;9959;49.798;9.928;2023-08-31T01:35:02;98999.31;;;12.58;100.00
19624;BME280;9959;49.798;9.928;2023-08-31T01:37:43;98998.84;;;12.77;100.00
19624;BME280;9959;49.798;9.928;2023-08-31T01:40:15;99001.97;;;12.86;100.00
19624;BME280;9959;49.798;9.928;2023-08-31T01:42:46;99001.69;;;12.99;100.00
19624;BME280;9959;49.798;9.928;2023-08-31T01:45:17;99001.97;;;12.86;100.00
19624;BME280;9959;49.798;9.928;2023-08-31T01:47:48;98996.88;;;12.73;100.00
19624;BME280;9959;49.798;9.928;2023-08-31T01:50:15;99000.75;;;12.77;100.00
19624;BME280;9959;49.798;9.928;2023-08-31T01:52:42;99001.81;;;12.76;100.00
19624;BME280;9959;49.798;9.928;2023-08-31T01:55:09;98998.41;;;12.97;100.00
19624;BME280;9959;49.798;9.928;2023-08-31T01:57:36;99001.94;;;12.69;100.00
19624;BME280;9959;49.798;9.928;2023-08-31T02:00:03;99006.81;;;12.56;100.00
19624;BME280;9959;49.798;9.928;2023-08-31T02:02:31;99010.66;;;12.88;100.00
19624;BME280;9959;49.798;9.928;2023-08-31T02:04:58;99009.31;;;12.74;100.00
19624;BME280;9959;49.798;9.928;2023-08-31T02:07:28;99015.00;;;12.61;100.00
19624;BME280;9959;49.798;9.928;2023-08-31T02:09:55;99010.25;;;12.51;100.00
19624;BME280;9959;49.798;9.928;2023-08-31T02:12:22;99001.25;;;12.62;100.00
19624;BME280;9959;49.798;9.928;2023-08-31T02:14:49;99004.00;;;12.50;100.00
19624;BME280;9959;49.798;9.928;2023-08-31T02:17:16;99004.00;;;12.50;100.00
19624;BME280;9959;49.798;9.928;2023-08-31T02:19:43;99000.44;;;12.62;100.00
19624;BME280;9959;49.798;9.928;2023-08-31T02:22:10;99004.34;;;13.11;100.00
19624;BME280;9959;49.798;9.928;2023-08-31T02:24:37;99011.44;;;12.72;100.00
19624;BME280;9959;49.798;9.928;2023-08-31T02:27:04;99012.88;;;12.63;100.00
19624;BME280;9959;49.798;9.928;2023-08-31T02:29:31;99013.63;;;12.58;100.00
19624;BME280;9959;49.798;9.928;2023-08-31T02:31:58;99019.75;;;12.53;100.00
19624;BME280;9959;49.798;9.928;2023-08-31T02:34:24;99015.63;;;12.51;100.00
19624;BME280;9959;49.798;9.928;2023-08-31T02:36:51;99019.28;;;12.57;100.00
19624;BME280;9959;49.798;9.928;2023-08-31T02:39:18;99026.09;;;12.47;100.00
19624;BME280;9959;49.798;9.928;2023-08-31T02:41:45;99021.63;;;12.53;100.00
19624;BME280;9959;49.798;9.928;2023-08-31T02:44:12;99017.25;;;12.12;100.00
19624;BME280;9959;49.798;9.928;2023-08-31T02:46:39;99027.81;;;12.25;100.00
19624;BME280;9959;49.798;9.928;2023-08-31T02:49:06;99024.72;;;12.33;100.00
19624;BME280;9959;49.798;9.928;2023-08-31T02:51:32;99040.34;;;12.31;100.00
19624;BME280;9959;49.798;9.928;2023-08-31T02:53:59;99029.63;;;12.36;100.00
19624;BME280;9959;49.798;9.928;2023-08-31T02:56:27;99032.38;;;12.25;100.00
19624;BME280;9959;49.798;9.928;2023-08-31T02:58:53;99031.53;;;12.76;100.00
19624;BME280;9959;49.798;9.928;2023-08-31T03:01:21;99037.50;;;12.38;100.00
19624;BME280;9959;49.798;9.928;2023-08-31T03:03:49;99037.50;;;12.38;100.00
19624;BME280;9959;49.798;9.928;2023-08-31T03:06:17;99031.28;;;12.37;100.00
19624;BME280;9959;49.798;9.928;2023-08-31T03:08:43;99033.91;;;12.20;100.00
19624;BME280;9959;49.798;9.928;2023-08-31T03:11:11;99030.53;;;12.02;100.00
19624;BME280;9959;49.798;9.928;2023-08-31T03:13:40;99029.47;;;12.03;100.00
19624;BME280;9959;49.798;9.928;2023-08-31T03:16:07;99024.91;;;12.03;100.00
19624;BME280;9959;49.798;9.928;2023-08-31T03:18:34;99021.25;;;11.98;100.00
19624;BME280;9959;49.798;9.928;2023-08-31T03:21:01;99031.34;;;11.91;100.00
19624;BME280;9959;49.798;9.928;2023-08-31T03:23:29;99042.16;;;11.91;100.00
19624;BME280;9959;49.798;9.928;2023-08-31T03:25:56;99048.63;;;12.01;100.00
19624;BME280;9959;49.798;9.928;2023-08-31T03:28:23;99044.50;;;11.87;100.00
19624;BME280;9959;49.798;9.928;2023-08-31T03:30:56;99045.91;;;11.90;100.00
19624;BME280;9959;49.798;9.928;2023-08-31T03:33:23;99047.66;;;11.84;100.00
19624;BME280;9959;49.798;9.928;2023-08-31T03:35:50;99048.38;;;11.91;100.00
19624;BME280;9959;49.798;9.928;2023-08-31T03:38:17;99053.88;;;12.08;100.00
19624;BME280;9959;49.798;9.928;2023-08-31T03:40:53;99053.50;;;12.04;100.00
19624;BME280;9959;49.798;9.928;2023-08-31T03:43:20;99052.28;;;12.47;100.00
19624;BME280;9959;49.798;9.928;2023-08-31T03:45:47;99063.03;;;12.07;100.00
19624;BME280;9959;49.798;9.928;2023-08-31T03:48:15;99063.97;;;11.89;100.00
19624;BME280;9959;49.798;9.928;2023-08-31T03:50:41;99058.09;;;12.04;100.00
19624;BME280;9959;49.798;9.928;2023-08-31T03:53:08;99059.75;;;12.05;100.00
19624;BME280;9959;49.798;9.928;2023-08-31T03:55:36;99072.69;;;12.03;100.00
19624;BME280;9959;49.798;9.928;2023-08-31T03:58:04;99070.06;;;12.08;100.00
19624;BME280;9959;49.798;9.928;2023-08-31T04:00:30;99063.50;;;12.04;100.00
19624;BME280;9959;49.798;9.928;2023-08-31T04:02:57;99075.72;;;11.95;100.00
19624;BME280;9959;49.798;9.928;2023-08-31T04:05:27;99073.00;;;12.06;100.00
19624;BME280;9959;49.798;9.928;2023-08-31T04:07:54;99073.94;;;12.12;100.00
19624;BME280;9959;49.798;9.928;2023-08-31T04:10:21;99067.50;;;12.13;100.00
19624;BME280;9959;49.798;9.928;2023-08-31T04:12:48;99068.78;;;12.10;100.00
19624;BME280;9959;49.798;9.928;2023-08-31T04:15:15;99082.03;;;12.12;100.00
19624;BME280;9959;49.798;9.928;2023-08-31T04:17:42;99078.75;;;12.10;100.00
19624;BME280;9959;49.798;9.928;2023-08-31T04:20:11;99080.88;;;12.08;100.00
19624;BME280;9959;49.798;9.928;2023-08-31T04:22:38;99085.09;;;12.04;100.00
19624;BME280;9959;49.798;9.928;2023-08-31T04:25:05;99087.69;;;11.99;100.00
19624;BME280;9959;49.798;9.928;2023-08-31T04:27:32;99090.72;;;11.91;100.00
19624;BME280;9959;49.798;9.928;2023-08-31T04:30:00;99100.59;;;11.97;100.00
19624;BME280;9959;49.798;9.928;2023-08-31T04:32:27;99095.53;;;11.89;100.00
19624;BME280;9959;49.798;9.928;2023-08-31T04:34:54;99098.03;;;12.02;100.00
19624;BME280;9959;49.798;9.928;2023-08-31T04:37:23;99107.88;;;11.96;100.00
19624;BME280;9959;49.798;9.928;2023-08-31T04:39:49;99108.69;;;11.97;100.00
19624;BME280;9959;49.798;9.928;2023-08-31T04:42:18;99099.09;;;12.01;100.00
19624;BME280;9959;49.798;9.928;2023-08-31T04:44:45;99108.91;;;12.07;100.00
19624;BME280;9959;49.798;9.928;2023-08-31T04:47:12;99113.97;;;12.15;100.00
19624;BME280;9959;49.798;9.928;2023-08-31T04:49:39;99116.09;;;12.13;100.00
19624;BME280;9959;49.798;9.928;2023-08-31T04:52:06;99119.75;;;12.18;100.00
19624;BME280;9959;49.798;9.928;2023-08-31T04:54:33;99124.44;;;12.23;100.00
19624;BME280;9959;49.798;9.928;2023-08-31T04:57:00;99118.19;;;12.34;100.00
19624;BME280;9959;49.798;9.928;2023-08-31T04:59:27;99118.53;;;12.49;100.00
19624;BME280;9959;49.798;9.928;2023-08-31T05:01:55;99119.59;;;12.48;100.00
19624;BME280;9959;49.798;9.928;2023-08-31T05:04:22;99122.41;;;12.53;100.00
19624;BME280;9959;49.798;9.928;2023-08-31T05:06:50;99121.13;;;12.56;100.00
19624;BME280;9959;49.798;9.928;2023-08-31T05:09:17;99123.69;;;12.63;100.00
19624;BME280;9959;49.798;9.928;2023-08-31T05:11:45;99121.31;;;12.78;100.00
19624;BME280;9959;49.798;9.928;2023-08-31T05:14:12;99125.38;;;12.92;100.00
19624;BME280;9959;49.798;9.928;2023-08-31T05:16:39;99127.78;;;12.77;100.00
19624;BME280;9959;49.798;9.928;2023-08-31T05:19:06;99121.59;;;12.93;100.00
19624;BME280;9959;49.798;9.928;2023-08-31T05:21:33;99124.56;;;12.92;100.00
19624;BME280;9959;49.798;9.928;2023-08-31T05:24:00;99128.25;;;12.74;100.00
19624;BME280;9959;49.798;9.928;2023-08-31T05:26:27;99127.19;;;12.75;100.00
19624;BME280;9959;49.798;9.928;2023-08-31T05:28:54;99126.25;;;12.81;100.00
19624;BME280;9959;49.798;9.928;2023-08-31T05:31:21;99133.59;;;12.97;100.00
19624;BME280;9959;49.798;9.928;2023-08-31T05:33:48;99141.25;;;12.88;100.00
19624;BME280;9959;49.798;9.928;2023-08-31T05:36:15;99145.09;;;13.04;100.00
19624;BME280;9959;49.798;9.928;2023-08-31T05:38:42;99142.53;;;12.98;100.00
19624;BME280;9959;49.798;9.928;2023-08-31T05:41:09;99148.16;;;12.96;100.00
19624;BME280;9959;49.798;9.928;2023-08-31T05:43:36;99148.66;;;12.93;100.00
19624;BME280;9959;49.798;9.928;2023-08-31T05:46:07;99143.59;;;12.97;100.00
19624;BME280;9959;49.798;9.928;2023-08-31T05:48:35;99157.22;;;12.90;100.00
19624;BME280;9959;49.798;9.928;2023-08-31T05:51:05;99152.28;;;12.87;100.00
19624;BME280;9959;49.798;9.928;2023-08-31T05:53:33;99164.16;;;12.86;100.00
19624;BME280;9959;49.798;9.928;2023-08-31T05:56:00;99164.41;;;12.96;100.00
19624;BME280;9959;49.798;9.928;2023-08-31T05:58:35;99166.31;;;12.84;100.00
19624;BME280;9959;49.798;9.928;2023-08-31T06:01:03;99159.75;;;12.80;100.00
19624;BME280;9959;49.798;9.928;2023-08-31T06:03:31;99174.44;;;12.84;100.00
19624;BME280;9959;49.798;9.928;2023-08-31T06:05:59;99176.63;;;12.87;100.00
19624;BME280;9959;49.798;9.928;2023-08-31T06:08:26;99169.56;;;12.86;100.00
19624;BME280;9959;49.798;9.928;2023-08-31T06:10:53;99177.22;;;12.89;100.00
19624;BME280;9959;49.798;9.928;2023-08-31T06:13:20;99174.50;;;12.89;100.00
19624;BME280;9959;49.798;9.928;2023-08-31T06:15:46;99186.13;;;13.01;100.00
19624;BME280;9959;49.798;9.928;2023-08-31T06:18:14;99182.03;;;12.99;100.00
19624;BME280;9959;49.798;9.928;2023-08-31T06:20:42;99172.72;;;13.06;100.00
19624;BME280;9959;49.798;9.928;2023-08-31T06:23:10;99179.75;;;13.19;100.00
19624;BME280;9959;49.798;9.928;2023-08-31T06:25:37;99190.72;;;13.12;100.00
19624;BME280;9959;49.798;9.928;2023-08-31T06:28:04;99186.22;;;13.18;100.00
19624;BME280;9959;49.798;9.928;2023-08-31T06:30:35;99187.88;;;13.19;100.00
19624;BME280;9959;49.798;9.928;2023-08-31T06:33:03;99193.13;;;13.37;100.00
19624;BME280;9959;49.798;9.928;2023-08-31T06:35:30;99203.13;;;13.37;100.00
19624;BME280;9959;49.798;9.928;2023-08-31T06:38:00;99195.19;;;13.47;100.00
19624;BME280;9959;49.798;9.928;2023-08-31T06:40:27;99194.38;;;13.46;100.00
19624;BME280;9959;49.798;9.928;2023-08-31T06:42:54;99201.63;;;13.58;100.00
19624;BME280;9959;49.798;9.928;2023-08-31T06:45:21;99203.63;;;13.62;100.00
19624;BME280;9959;49.798;9.928;2023-08-31T06:47:48;99206.66;;;13.66;100.00
19624;BME280;9959;49.798;9.928;2023-08-31T06:50:14;99201.25;;;13.82;100.00
19624;BME280;9959;49.798;9.928;2023-08-31T06:52:41;99204.06;;;13.87;100.00
19624;BME280;9959;49.798;9.928;2023-08-31T06:55:08;99196.00;;;13.76;100.00
19624;BME280;9959;49.798;9.928;2023-08-31T06:57:37;99205.72;;;13.88;100.00
19624;BME280;9959;49.798;9.928;2023-08-31T07:00:05;99208.75;;;14.09;100.00
19624;BME280;9959;49.798;9.928;2023-08-31T07:02:37;99200.13;;;14.29;100.00
19624;BME280;9959;49.798;9.928;2023-08-31T07:05:04;99198.34;;;14.34;100.00
19624;BME280;9959;49.798;9.928;2023-08-31T07:07:31;99203.13;;;14.44;100.00
19624;BME280;9959;49.798;9.928;2023-08-31T07:09:58;99212.31;;;14.60;100.00
19624;BME280;9959;49.798;9.928;2023-08-31T07:12:25;99196.06;;;14.81;100.00
19624;BME280;9959;49.798;9.928;2023-08-31T07:14:52;99193.94;;;15.05;99.90
19624;BME280;9959;49.798;9.928;2023-08-31T07:17:19;99207.72;;;15.20;96.86
19624;BME280;9959;49.798;9.928;2023-08-31T07:19:47;99215.94;;;15.26;95.99
19624;BME280;9959;49.798;9.928;2023-08-31T07:22:14;99222.19;;;15.26;95.41
19624;BME280;9959;49.798;9.928;2023-08-31T07:24:41;99216.94;;;15.19;93.18
19624;BME280;9959;49.798;9.928;2023-08-31T07:27:08;99227.94;;;15.30;93.56
19624;BME280;9959;49.798;9.928;2023-08-31T07:29:35;99226.91;;;15.36;91.96
19624;BME280;9959;49.798;9.928;2023-08-31T07:32:02;99226.03;;;15.30;90.31
19624;BME280;9959;49.798;9.928;2023-08-31T07:34:29;99223.38;;;15.13;90.09
19624;BME280;9959;49.798;9.928;2023-08-31T07:36:59;99235.75;;;15.48;89.04
19624;BME280;9959;49.798;9.928;2023-08-31T07:39:26;99232.28;;;15.52;86.14
19624;BME280;9959;49.798;9.928;2023-08-31T07:41:54;99246.03;;;15.95;85.73
19624;BME280;9959;49.798;9.928;2023-08-31T07:44:21;99237.56;;;15.64;84.63
19624;BME280;9959;49.798;9.928;2023-08-31T07:46:48;99244.56;;;16.09;83.08
19624;BME280;9959;49.798;9.928;2023-08-31T07:49:15;99241.75;;;15.99;79.23
19624;BME280;9959;49.798;9.928;2023-08-31T07:51:42;99255.47;;;16.14;78.45
19624;BME280;9959;49.798;9.928;2023-08-31T07:54:09;99263.09;;;16.12;79.01
19624;BME280;9959;49.798;9.928;2023-08-31T07:56:36;99249.34;;;16.61;76.10
19624;BME280;9959;49.798;9.928;2023-08-31T07:59:03;99260.16;;;16.50;74.49
19624;BME280;9959;49.798;9.928;2023-08-31T08:01:30;99258.59;;;16.28;76.41
19624;BME280;9959;49.798;9.928;2023-08-31T08:03:57;99270.00;;;16.56;73.31
19624;BME280;9959;49.798;9.928;2023-08-31T08:06:24;99266.31;;;16.68;72.39
19624;BME280;9959;49.798;9.928;2023-08-31T08:08:51;99269.75;;;16.95;70.60
19624;BME280;9959;49.798;9.928;2023-08-31T08:11:18;99268.56;;;16.81;70.52
19624;BME280;9959;49.798;9.928;2023-08-31T08:13:44;99264.34;;;17.05;69.38
19624;BME280;9959;49.798;9.928;2023-08-31T08:16:11;99274.13;;;17.48;68.82
19624;BME280;9959;49.798;9.928;2023-08-31T08:18:39;99276.66;;;17.65;67.75
19624;BME280;9959;49.798;9.928;2023-08-31T08:21:06;99268.81;;;17.26;69.74
19624;BME280;9959;49.798;9.928;2023-08-31T08:23:33;99277.16;;;17.05;70.87
19624;BME280;9959;49.798;9.928;2023-08-31T08:26:00;99278.75;;;17.53;68.36
19624;BME280;9959;49.798;9.928;2023-08-31T08:28:27;99272.00;;;17.08;68.58
19624;BME280;9959;49.798;9.928;2023-08-31T08:30:55;99277.63;;;18.16;63.73
19624;BME280;9959;49.798;9.928;2023-08-31T08:33:22;99279.53;;;16.96;66.31
19624;BME280;9959;49.798;9.928;2023-08-31T08:35:49;99269.16;;;18.33;62.36
19624;BME280;9959;49.798;9.928;2023-08-31T08:38:16;99277.25;;;17.82;63.39
19624;BME280;9959;49.798;9.928;2023-08-31T08:40:42;99274.06;;;18.21;61.88
19624;BME280;9959;49.798;9.928;2023-08-31T08:43:10;99269.69;;;18.15;62.21
19624;BME280;9959;49.798;9.928;2023-08-31T08:45:38;99271.34;;;19.07;58.99
19624;BME280;9959;49.798;9.928;2023-08-31T08:48:08;99284.88;;;19.43;57.87
19624;BME280;9959;49.798;9.928;2023-08-31T08:50:36;99272.84;;;19.44;56.45
19624;BME280;9959;49.798;9.928;2023-08-31T08:53:04;99272.22;;;19.77;55.96
19624;BME280;9959;49.798;9.928;2023-08-31T08:55:32;99276.03;;;18.66;57.47
19624;BME280;9959;49.798;9.928;2023-08-31T08:58:00;99282.28;;;18.97;57.31
19624;BME280;9959;49.798;9.928;2023-08-31T09:00:27;99284.69;;;18.02;61.86
19624;BME280;9959;49.798;9.928;2023-08-31T09:02:55;99285.41;;;17.67;61.69
19624;BME280;9959;49.798;9.928;2023-08-31T09:05:23;99291.75;;;17.98;62.61
19624;BME280;9959;49.798;9.928;2023-08-31T09:08:06;99284.25;;;17.63;64.97
19624;BME280;9959;49.798;9.928;2023-08-31T09:10:39;99291.28;;;17.54;65.95
19624;BME280;9959;49.798;9.928;2023-08-31T09:13:10;99285.97;;;17.74;65.48
19624;BME280;9959;49.798;9.928;2023-08-31T09:15:48;99291.75;;;18.08;62.71
19624;BME280;9959;49.798;9.928;2023-08-31T09:18:15;99290.06;;;17.77;63.75
19624;BME280;9959;49.798;9.928;2023-08-31T09:20:46;99309.00;;;17.56;63.94
19624;BME280;9959;49.798;9.928;2023-08-31T09:23:14;99303.69;;;17.82;62.90
19624;BME280;9959;49.798;9.928;2023-08-31T09:25:49;99299.97;;;18.34;59.95
19624;BME280;9959;49.798;9.928;2023-08-31T09:28:19;99292.66;;;18.49;59.56
19624;BME280;9959;49.798;9.928;2023-08-31T09:30:48;99285.13;;;20.16;54.61
19624;BME280;9959;49.798;9.928;2023-08-31T09:33:17;99291.56;;;18.96;56.96
19624;BME280;9959;49.798;9.928;2023-08-31T09:36:00;99280.63;;;19.11;55.32
19624;BME280;9959;49.798;9.928;2023-08-31T09:38:28;99285.56;;;18.58;58.18
19624;BME280;9959;49.798;9.928;2023-08-31T09:41:05;99287.47;;;18.93;58.31
19624;BME280;9959;49.798;9.928;2023-08-31T09:43:35;99292.88;;;18.12;59.81
19624;BME280;9959;49.798;9.928;2023-08-31T09:46:03;99296.88;;;17.84;60.87
19624;BME280;9959;49.798;9.928;2023-08-31T09:48:31;99298.69;;;18.67;58.55
19624;BME280;9959;49.798;9.928;2023-08-31T09:51:02;99299.16;;;18.33;59.27
19624;BME280;9959;49.798;9.928;2023-08-31T09:53:31;99298.50;;;17.80;60.79
19624;BME280;9959;49.798;9.928;2023-08-31T09:55:59;99299.69;;;18.15;59.06
19624;BME280;9959;49.798;9.928;2023-08-31T09:58:27;99300.06;;;18.79;57.39
19624;BME280;9959;49.798;9.928;2023-08-31T10:00:57;99304.69;;;18.74;55.75
19624;BME280;9959;49.798;9.928;2023-08-31T10:03:25;99306.25;;;18.34;57.02
19624;BME280;9959;49.798;9.928;2023-08-31T10:05:54;99297.56;;;18.52;57.70
19624;BME280;9959;49.798;9.928;2023-08-31T10:08:21;99308.47;;;18.42;58.73
19624;BME280;9959;49.798;9.928;2023-08-31T10:10:48;99309.06;;;18.80;56.91
19624;BME280;9959;49.798;9.928;2023-08-31T10:13:15;99304.66;;;18.94;56.25
19624;BME280;9959;49.798;9.928;2023-08-31T10:15:44;99310.94;;;19.05;55.45
19624;BME280;9959;49.798;9.928;2023-08-31T10:18:11;99311.75;;;19.05;55.01
19624;BME280;9959;49.798;9.928;2023-08-31T10:20:42;99303.78;;;19.34;52.32
19624;BME280;9959;49.798;9.928;2023-08-31T10:23:09;99307.28;;;19.60;51.31
19624;BME280;9959;49.798;9.928;2023-08-31T10:26:06;99311.94;;;20.14;49.64
19624;BME280;9959;49.798;9.928;2023-08-31T10:28:39;99308.38;;;20.57;48.03
19624;BME280;9959;49.798;9.928;2023-08-31T10:31:15;99324.13;;;20.32;48.81
19624;BME280;9959;49.798;9.928;2023-08-31T10:33:54;99326.97;;;19.52;50.74
19624;BME280;9959;49.798;9.928;2023-08-31T10:36:21;99325.13;;;18.97;52.62
19624;BME280;9959;49.798;9.928;2023-08-31T10:41:32;99320.00;;;20.34;48.55
19624;BME280;9959;49.798;9.928;2023-08-31T10:43:59;99326.06;;;20.26;49.51
19624;BME280;9959;49.798;9.928;2023-08-31T10:51:40;99317.56;;;20.38;49.01
19624;BME280;9959;49.798;9.928;2023-08-31T10:54:31;99322.78;;;21.02;47.28
19624;BME280;9959;49.798;9.928;2023-08-31T10:57:02;99314.91;;;20.22;49.26
19624;BME280;9959;49.798;9.928;2023-08-31T11:02:10;99322.06;;;19.39;51.21
19624;BME280;9959;49.798;9.928;2023-08-31T11:04:55;99330.06;;;18.94;51.99
19624;BME280;9959;49.798;9.928;2023-08-31T11:07:25;99322.94;;;18.58;53.44
19624;BME280;9959;49.798;9.928;2023-08-31T11:10:06;99323.19;;;18.31;54.53
19624;BME280;9959;49.798;9.928;2023-08-31T11:12:34;99322.13;;;18.63;54.06
19624;BME280;9959;49.798;9.928;2023-08-31T11:15:01;99326.72;;;18.26;55.36
19624;BME280;9959;49.798;9.928;2023-08-31T11:17:28;99325.44;;;18.59;55.30
19624;BME280;9959;49.798;9.928;2023-08-31T11:19:56;99342.19;;;18.06;57.07
19624;BME280;9959;49.798;9.928;2023-08-31T11:22:23;99336.81;;;18.26;56.77
19624;BME280;9959;49.798;9.928;2023-08-31T11:24:51;99341.00;;;17.81;58.23
19624;BME280;9959;49.798;9.928;2023-08-31T11:27:21;99332.38;;;18.00;58.37
19624;BME280;9959;49.798;9.928;2023-08-31T11:29:48;99327.25;;;18.23;57.97
19624;BME280;9959;49.798;9.928;2023-08-31T11:32:15;99322.44;;;18.81;56.09
19624;BME280;9959;49.798;9.928;2023-08-31T11:34:44;99325.88;;;19.58;53.29
19624;BME280;9959;49.798;9.928;2023-08-31T11:37:14;99322.91;;;19.34;53.00
19624;BME280;9959;49.798;9.928;2023-08-31T11:39:48;99319.50;;;19.78;51.88
19624;BME280;9959;49.798;9.928;2023-08-31T11:42:16;99315.47;;;19.50;52.95
19624;BME280;9959;49.798;9.928;2023-08-31T11:44:49;99312.69;;;19.70;52.88
19624;BME280;9959;49.798;9.928;2023-08-31T11:47:17;99320.28;;;20.38;51.15
19624;BME280;9959;49.798;9.928;2023-08-31T11:49:45;99313.84;;;19.49;52.89
19624;BME280;9959;49.798;9.928;2023-08-31T11:52:13;99309.84;;;19.96;52.04
19624;BME280;9959;49.798;9.928;2023-08-31T11:54:42;99312.63;;;19.85;51.71
19624;BME280;9959;49.798;9.928;2023-08-31T11:57:10;99314.00;;;20.32;50.40
19624;BME280;9959;49.798;9.928;2023-08-31T11:59:38;99308.06;;;20.20;50.84
19624;BME280;9959;49.798;9.928;2023-08-31T12:02:06;99307.91;;;20.50;49.37
19624;BME280;9959;49.798;9.928;2023-08-31T12:04:44;99309.88;;;20.40;49.78
19624;BME280;9959;49.798;9.928;2023-08-31T12:07:16;99309.75;;;20.16;49.29
19624;BME280;9959;49.798;9.928;2023-08-31T12:09:44;99315.41;;;20.69;48.84
19624;BME280;9959;49.798;9.928;2023-08-31T12:12:13;99314.53;;;20.39;48.28
19624;BME280;9959;49.798;9.928;2023-08-31T12:14:40;99321.41;;;20.26;46.21
19624;BME280;9959;49.798;9.928;2023-08-31T12:17:08;99318.53;;;20.08;45.12
19624;BME280;9959;49.798;9.928;2023-08-31T12:19:38;99331.50;;;20.36;44.49
19624;BME280;9959;49.798;9.928;2023-08-31T12:22:06;99313.56;;;20.15;45.51
19624;BME280;9959;49.798;9.928;2023-08-31T12:24:40;99312.50;;;19.51;47.21
19624;BME280;9959;49.798;9.928;2023-08-31T12:27:08;99304.31;;;20.06;46.52
19624;BME280;9959;49.798;9.928;2023-08-31T12:29:35;99314.38;;;20.15;47.34
19624;BME280;9959;49.798;9.928;2023-08-31T12:32:02;99306.03;;;20.41;46.83
19624;BME280;9959;49.798;9.928;2023-08-31T12:34:30;99312.00;;;20.82;46.54
19624;BME280;9959;49.798;9.928;2023-08-31T12:36:59;99314.00;;;20.76;45.78
19624;BME280;9959;49.798;9.928;2023-08-31T12:39:27;99298.16;;;23.05;42.23
19624;BME280;9959;49.798;9.928;2023-08-31T12:41:54;99297.19;;;25.22;37.85
19624;BME280;9959;49.798;9.928;2023-08-31T12:44:38;99294.38;;;24.91;37.19
19624;BME280;9959;49.798;9.928;2023-08-31T12:47:05;99300.00;;;24.78;38.61
19624;BME280;9959;49.798;9.928;2023-08-31T12:49:32;99303.28;;;22.60;41.54
19624;BME280;9959;49.798;9.928;2023-08-31T12:51:59;99301.81;;;21.16;44.43
19624;BME280;9959;49.798;9.928;2023-08-31T12:54:26;99297.97;;;21.22;44.57
19624;BME280;9959;49.798;9.928;2023-08-31T12:56:53;99292.59;;;21.36;44.11
19624;BME280;9959;49.798;9.928;2023-08-31T12:59:19;99299.53;;;21.00;45.57
19624;BME280;9959;49.798;9.928;2023-08-31T13:01:46;99297.25;;;20.49;46.03
19624;BME280;9959;49.798;9.928;2023-08-31T13:04:13;99300.69;;;20.20;47.47
19624;BME280;9959;49.798;9.928;2023-08-31T13:06:41;99296.63;;;23.13;41.25
19624;BME280;9959;49.798;9.928;2023-08-31T13:09:08;99299.66;;;22.65;41.14
19624;BME280;9959;49.798;9.928;2023-08-31T13:11:35;99297.47;;;22.81;41.22
19624;BME280;9959;49.798;9.928;2023-08-31T13:14:02;99304.06;;;22.10;43.23
19624;BME280;9959;49.798;9.928;2023-08-31T13:16:29;99299.66;;;21.66;43.26
19624;BME280;9959;49.798;9.928;2023-08-31T13:18:56;99311.03;;;21.31;44.01
19624;BME280;9959;49.798;9.928;2023-08-31T13:21:23;99298.59;;;21.62;43.87
19624;BME280;9959;49.798;9.928;2023-08-31T13:23:50;99305.56;;;21.31;44.62
19624;BME280;9959;49.798;9.928;2023-08-31T13:26:17;99298.84;;;24.34;39.26
19624;BME280;9959;49.798;9.928;2023-08-31T13:28:44;99302.44;;;25.02;37.09
19624;BME280;9959;49.798;9.928;2023-08-31T13:31:11;99300.50;;;24.57;36.13